Time;durP1;ratioP1;P1;durP2;ratioP2;P2;SDS_P1;SDS_P2;PMS_P1;PMS_P2;Temp;Humidity;BMP_temperature;BMP_pressure;BME280_temperature;BME280_humidity;BME280_pressure;Samples;Min_cycle;Max_cycle;Signal;HPM_P1;HPM_P2
2022/07/07 00:01:42;;;;;;;1.90;0.70;;;14.80;99.90;14.20;100423;;;;577706;244;24149;-81
2022/07/07 00:04:11;;;;;;;2.83;0.77;;;14.70;99.90;14.20;100424;;;;577965;244;24062;-81
2022/07/07 00:06:39;;;;;;;2.07;1.00;;;14.70;99.90;14.20;100416;;;;577970;244;24089;-80
2022/07/07 00:09:06;;;;;;;4.73;1.10;;;14.80;99.90;14.20;100412;;;;579477;244;24059;-80
2022/07/07 00:11:34;;;;;;;3.53;0.80;;;14.70;99.90;14.10;100424;;;;577940;244;24108;-81
2022/07/07 00:14:06;;;;;;;2.83;0.93;;;14.70;99.90;14.10;100419;;;;588699;242;24082;-82
2022/07/07 00:16:30;;;;;;;2.60;0.80;;;14.70;99.90;14.10;100412;;;;579253;244;24091;-82
2022/07/07 00:19:01;;;;;;;3.73;0.60;;;14.70;99.90;14.10;100415;;;;578027;244;24118;-81
2022/07/07 00:21:26;;;;;;;5.40;0.77;;;14.70;99.90;14.10;100415;;;;579135;244;24139;-83
2022/07/07 00:23:54;;;;;;;2.93;0.70;;;14.70;99.90;14.10;100417;;;;577900;244;24053;-83
2022/07/07 00:26:23;;;;;;;2.17;0.80;;;14.70;99.90;14.10;100414;;;;577942;244;24102;-81
2022/07/07 00:28:55;;;;;;;1.27;0.77;;;14.70;99.90;14.10;100414;;;;577909;244;24144;-83
2022/07/07 00:31:19;;;;;;;2.27;1.10;;;14.70;99.90;14.10;100414;;;;587692;244;24049;-82
2022/07/07 00:33:47;;;;;;;1.90;1.03;;;14.70;99.90;14.10;100404;;;;577962;244;24081;-81
2022/07/07 00:36:19;;;;;;;5.60;0.70;;;14.70;99.90;14.10;100409;;;;577901;244;24044;-81
2022/07/07 00:38:44;;;;;;;0.80;0.80;;;14.70;99.90;14.10;100401;;;;577743;244;24072;-81
2022/07/07 00:41:12;;;;;;;1.90;0.60;;;14.70;99.90;14.10;100410;;;;577949;244;24080;-83
2022/07/07 00:43:40;;;;;;;5.93;0.70;;;14.70;99.90;14.10;100402;;;;577987;244;24076;-82
2022/07/07 00:46:07;;;;;;;6.93;0.90;;;14.70;99.90;14.10;100399;;;;579194;244;24125;-82
2022/07/07 00:48:36;;;;;;;3.27;1.00;;;14.70;99.90;14.10;100387;;;;588211;242;24048;-82
2022/07/07 00:51:04;;;;;;;1.33;0.73;;;14.70;99.90;14.10;100394;;;;579180;244;24067;-81
2022/07/07 00:53:32;;;;;;;0.87;0.87;;;14.70;99.90;14.10;100385;;;;580315;243;24089;-82
2022/07/07 00:56:00;;;;;;;2.00;0.73;;;14.60;99.90;14.10;100386;;;;578813;243;24069;-82
2022/07/07 00:58:28;;;;;;;1.93;0.73;;;14.60;99.90;14.10;100382;;;;578416;244;24101;-81
2022/07/07 01:00:56;;;;;;;3.57;0.90;;;14.60;99.90;14.10;100389;;;;578260;244;24042;-83
2022/07/07 01:03:24;;;;;;;2.97;0.63;;;14.60;99.90;14.10;100383;;;;578174;244;24089;-82
2022/07/07 01:05:52;;;;;;;3.73;0.60;;;14.60;99.90;14.00;100379;;;;578139;244;24102;-81
2022/07/07 01:08:20;;;;;;;2.97;0.93;;;14.60;99.90;14.00;100382;;;;579473;244;24058;-80
2022/07/07 01:10:48;;;;;;;5.50;0.70;;;14.60;99.90;14.00;100374;;;;579419;244;25106;-81
2022/07/07 01:13:16;;;;;;;0.70;0.53;;;14.60;99.90;14.00;100371;;;;577813;244;24082;-79
2022/07/07 01:15:43;;;;;;;1.83;0.70;;;14.60;99.90;14.00;100373;;;;588447;242;24096;-81
2022/07/07 01:18:11;;;;;;;1.57;0.60;;;14.60;99.90;14.00;100368;;;;578151;244;24074;-81
2022/07/07 01:20:39;;;;;;;7.37;1.00;;;14.60;99.90;14.00;100361;;;;578372;244;24043;-81
2022/07/07 01:23:07;;;;;;;1.80;0.90;;;14.60;99.90;14.00;100359;;;;579370;244;24071;-82
2022/07/07 01:25:35;;;;;;;3.40;0.80;;;14.60;99.90;14.00;100358;;;;588552;242;24059;-81
2022/07/07 01:28:03;;;;;;;0.97;0.40;;;14.60;99.90;14.00;100360;;;;578237;244;24060;-80
2022/07/07 01:30:34;;;;;;;5.20;0.83;;;14.60;99.90;14.00;100352;;;;577902;244;24053;-81
2022/07/07 01:33:02;;;;;;;3.03;0.70;;;14.60;99.90;14.00;100355;;;;579045;244;24059;-82
2022/07/07 01:35:27;;;;;;;1.30;0.73;;;14.50;99.90;14.00;100353;;;;579104;244;24070;-81
2022/07/07 01:37:55;;;;;;;4.77;0.77;;;14.50;99.90;13.90;100356;;;;577965;244;24142;-81
2022/07/07 01:40:23;;;;;;;0.60;0.60;;;14.50;99.90;14.00;100359;;;;577948;244;24072;-81
2022/07/07 01:42:51;;;;;;;3.10;0.70;;;14.50;99.90;13.90;100351;;;;577973;244;24128;-82
2022/07/07 01:45:19;;;;;;;2.50;0.70;;;14.50;99.90;13.90;100346;;;;577846;244;24120;-82
2022/07/07 01:47:47;;;;;;;3.40;0.93;;;14.50;99.90;13.90;100352;;;;577924;244;24090;-81
2022/07/07 01:50:15;;;;;;;1.00;0.60;;;14.50;99.90;13.90;100352;;;;577906;244;24088;-81
2022/07/07 01:52:43;;;;;;;2.10;0.77;;;14.50;99.90;13.90;100355;;;;577951;244;24088;-82
2022/07/07 01:55:11;;;;;;;0.70;0.70;;;14.50;99.90;13.90;100348;;;;577909;244;24167;-81
2022/07/07 01:57:42;;;;;;;0.50;0.50;;;14.50;99.90;13.90;100348;;;;577513;244;24089;-81
2022/07/07 02:00:07;;;;;;;2.00;1.00;;;14.50;99.90;13.90;100342;;;;578369;244;24121;-81
2022/07/07 02:02:35;;;;;;;1.73;0.53;;;14.40;99.90;13.90;100346;;;;577627;244;24100;-81
2022/07/07 02:05:03;;;;;;;1.97;0.80;;;14.40;99.90;13.90;100351;;;;578570;243;24076;-82
2022/07/07 02:07:31;;;;;;;3.03;0.47;;;14.40;99.90;13.90;100343;;;;578797;243;24065;-82
2022/07/07 02:09:59;;;;;;;1.07;0.60;;;14.40;99.90;13.90;100344;;;;579732;244;24051;-80
2022/07/07 02:12:27;;;;;;;2.07;0.93;;;14.40;99.90;13.80;100336;;;;579566;244;24067;-80
2022/07/07 02:14:57;;;;;;;0.90;0.63;;;14.40;99.90;13.80;100337;;;;578244;244;24092;-81
2022/07/07 02:17:23;;;;;;;3.87;0.70;;;14.40;99.90;13.80;100334;;;;578508;244;25138;-80
2022/07/07 02:19:51;;;;;;;4.37;0.83;;;14.40;99.90;13.80;100332;;;;579908;244;24048;-81
2022/07/07 02:22:19;;;;;;;1.27;0.60;;;14.40;99.90;13.80;100336;;;;578473;244;24075;-80
2022/07/07 02:24:47;;;;;;;3.40;0.93;;;14.40;99.90;13.80;100330;;;;578482;244;24090;-82
2022/07/07 02:27:15;;;;;;;3.00;0.73;;;14.40;99.90;13.80;100336;;;;578288;244;24078;-82
2022/07/07 02:29:43;;;;;;;3.10;0.60;;;14.40;99.90;13.80;100325;;;;578359;244;24063;-81
2022/07/07 02:32:11;;;;;;;1.10;0.70;;;14.40;99.90;13.80;100332;;;;578257;244;24050;-81
2022/07/07 02:34:39;;;;;;;2.63;0.90;;;14.40;99.90;13.80;100322;;;;579545;244;25096;-81
2022/07/07 02:37:07;;;;;;;3.10;1.20;;;14.40;99.90;13.80;100324;;;;578214;244;24066;-82
2022/07/07 02:39:35;;;;;;;0.83;0.60;;;14.40;99.90;13.80;100324;;;;578220;244;24066;-82
2022/07/07 02:42:06;;;;;;;0.60;0.60;;;14.40;99.90;13.80;100320;;;;577948;244;24074;-81
2022/07/07 02:44:31;;;;;;;3.17;0.70;;;14.40;99.90;13.90;100325;;;;577873;244;24057;-81
2022/07/07 02:47:00;;;;;;;2.53;0.77;;;14.50;99.90;13.90;100316;;;;577908;244;24066;-80
2022/07/07 02:49:28;;;;;;;2.53;0.53;;;14.40;99.90;13.90;100321;;;;579250;244;24086;-81
2022/07/07 02:51:56;;;;;;;5.27;0.70;;;14.50;99.90;13.90;100319;;;;577948;244;24113;-81
2022/07/07 02:54:24;;;;;;;1.90;0.90;;;14.50;99.90;13.90;100324;;;;577919;244;24134;-80
2022/07/07 02:56:52;;;;;;;2.00;0.90;;;14.50;99.90;13.90;100315;;;;577580;244;24062;-81
2022/07/07 02:59:19;;;;;;;2.10;0.60;;;14.50;99.90;13.90;100321;;;;577569;244;24056;-80
2022/07/07 03:01:47;;;;;;;1.40;0.77;;;14.50;99.90;13.90;100317;;;;577805;244;24046;-80
2022/07/07 03:04:16;;;;;;;3.80;0.80;;;14.50;99.90;13.90;100317;;;;577980;244;24094;-80
2022/07/07 03:06:44;;;;;;;0.60;0.60;;;14.50;99.90;13.90;100311;;;;579307;244;24063;-80
2022/07/07 03:09:12;;;;;;;0.67;0.67;;;14.50;99.90;14.00;100320;;;;577742;244;24106;-81
2022/07/07 03:11:40;;;;;;;2.17;1.00;;;14.50;99.90;14.00;100325;;;;576596;244;24132;-81
2022/07/07 03:14:08;;;;;;;0.70;0.47;;;14.50;99.90;14.00;100316;;;;577623;244;24060;-81
2022/07/07 03:16:36;;;;;;;0.97;0.57;;;14.50;99.90;14.00;100312;;;;578938;243;24082;-81
2022/07/07 03:19:04;;;;;;;2.40;0.70;;;14.60;99.90;14.00;100311;;;;589421;242;24051;-80
2022/07/07 03:21:32;;;;;;;2.10;0.70;;;14.60;99.90;14.00;100310;;;;579048;244;24039;-81
2022/07/07 03:23:59;;;;;;;0.87;0.50;;;14.60;99.90;14.00;100305;;;;578873;244;24055;-80
2022/07/07 03:26:27;;;;;;;2.77;0.80;;;14.60;99.90;14.00;100308;;;;578228;244;24090;-82
2022/07/07 03:28:55;;;;;;;1.43;0.50;;;14.60;99.90;14.00;100300;;;;578067;244;24067;-82
2022/07/07 03:31:23;;;;;;;0.73;0.60;;;14.60;99.90;14.00;100298;;;;578210;244;24051;-80
2022/07/07 03:33:51;;;;;;;2.30;0.70;;;14.60;99.90;14.10;100301;;;;579248;244;24087;-82
2022/07/07 03:36:19;;;;;;;3.63;1.10;;;14.60;99.90;14.10;100298;;;;577935;244;24047;-81
2022/07/07 03:38:50;;;;;;;2.30;1.00;;;14.60;99.90;14.10;100296;;;;577845;244;24123;-83
2022/07/07 03:41:15;;;;;;;1.30;0.70;;;14.60;99.90;14.10;100305;;;;577667;244;24094;-82
2022/07/07 03:43:43;;;;;;;0.70;0.70;;;14.60;99.90;14.10;100302;;;;577937;244;24087;-81
2022/07/07 03:46:11;;;;;;;1.60;0.63;;;14.70;99.90;14.10;100290;;;;578226;244;24067;-80
2022/07/07 03:48:39;;;;;;;3.80;0.90;;;14.70;99.90;14.20;100302;;;;578195;244;24068;-82
2022/07/07 03:51:07;;;;;;;2.60;0.53;;;14.70;99.90;14.20;100291;;;;578051;244;24099;-81
2022/07/07 03:53:37;;;;;;;1.40;0.70;;;14.70;99.90;14.20;100294;;;;577936;244;24052;-82
2022/07/07 03:56:02;;;;;;;1.87;0.80;;;14.80;99.90;14.20;100291;;;;577638;244;24056;-81
2022/07/07 03:58:30;;;;;;;2.13;1.20;;;14.80;99.90;14.20;100294;;;;577585;244;24043;-81
2022/07/07 04:01:02;;;;;;;0.77;0.60;;;14.90;99.90;14.30;100295;;;;577656;244;24084;-83
2022/07/07 04:03:28;;;;;;;4.77;0.90;;;14.90;99.90;14.40;100289;;;;577451;244;24064;-82
2022/07/07 04:05:56;;;;;;;1.80;0.57;;;14.90;99.90;14.40;100288;;;;577737;244;24058;-80
2022/07/07 04:08:24;;;;;;;2.20;0.80;;;14.90;99.90;14.50;100298;;;;577632;244;24057;-82
2022/07/07 04:10:52;;;;;;;0.70;0.60;;;15.00;99.90;14.50;100291;;;;577479;244;24065;-82
2022/07/07 04:13:20;;;;;;;3.80;0.70;;;15.00;99.90;14.50;100294;;;;577575;244;24065;-82
2022/07/07 04:15:48;;;;;;;4.00;0.70;;;15.10;99.90;14.60;100293;;;;577579;244;24104;-83
2022/07/07 04:18:16;;;;;;;1.53;0.90;;;15.20;99.90;14.70;100299;;;;577918;244;24060;-81
2022/07/07 04:20:44;;;;;;;1.90;0.67;;;15.30;99.90;14.80;100300;;;;587806;242;24063;-82
2022/07/07 04:23:12;;;;;;;1.50;1.07;;;15.40;99.90;14.90;100298;;;;577633;244;24073;-82
2022/07/07 04:25:40;;;;;;;2.97;0.80;;;15.50;99.90;15.00;100297;;;;577613;244;24069;-82
2022/07/07 04:28:08;;;;;;;1.83;0.80;;;15.60;99.90;15.10;100303;;;;578426;243;24066;-81
2022/07/07 04:30:36;;;;;;;1.93;0.50;;;15.70;99.90;15.20;100295;;;;578771;243;24152;-82
2022/07/07 04:33:04;;;;;;;5.50;0.93;;;15.80;99.90;15.40;100296;;;;578415;244;24079;-82
2022/07/07 04:35:31;;;;;;;2.23;0.60;;;15.90;99.90;15.50;100301;;;;579737;244;24054;-82
2022/07/07 04:37:59;;;;;;;2.47;0.73;;;16.10;99.90;15.70;100295;;;;578140;244;24112;-82
2022/07/07 04:40:27;;;;;;;1.70;0.67;;;16.20;99.90;15.90;100300;;;;577978;244;24070;-81
2022/07/07 04:42:55;;;;;;;1.90;0.63;;;16.40;99.90;16.10;100295;;;;578104;244;24063;-83
2022/07/07 04:45:23;;;;;;;2.37;0.67;;;16.60;99.90;16.20;100299;;;;577998;244;24145;-81
2022/07/07 04:47:51;;;;;;;3.33;1.00;;;16.80;99.90;16.40;100302;;;;577929;244;24166;-83
2022/07/07 04:50:19;;;;;;;1.63;0.77;;;17.00;99.90;16.60;100304;;;;577790;244;24120;-81
2022/07/07 04:52:47;;;;;;;3.03;0.93;;;17.10;99.90;16.90;100305;;;;577944;244;24122;-82
2022/07/07 04:55:15;;;;;;;2.27;0.70;;;17.40;99.90;17.10;100309;;;;577856;244;24103;-83
2022/07/07 04:57:43;;;;;;;2.57;0.63;;;17.60;99.90;17.30;100309;;;;577740;244;24064;-80
2022/07/07 05:00:14;;;;;;;0.70;0.70;;;17.90;99.90;18.30;100307;;;;577846;244;24079;-82
2022/07/07 05:02:39;;;;;;;1.57;0.87;;;20.60;99.90;20.30;100314;;;;578979;244;24088;-82
2022/07/07 05:05:07;;;;;;;1.37;0.50;;;20.60;99.90;21.80;100314;;;;577676;244;24051;-81
2022/07/07 05:07:35;;;;;;;2.37;0.50;;;22.40;99.90;22.30;100311;;;;577539;244;24045;-82
2022/07/07 05:10:04;;;;;;;1.70;0.80;;;23.40;99.90;22.60;100312;;;;577423;244;24130;-82
2022/07/07 05:12:33;;;;;;;3.43;0.97;;;24.20;99.40;23.50;100311;;;;577599;244;23086;-82
2022/07/07 05:15:01;;;;;;;2.87;1.17;;;24.70;96.20;23.90;100306;;;;587737;242;24069;-82
2022/07/07 05:17:29;;;;;;;1.10;1.10;;;24.60;95.90;25.10;100307;;;;577637;244;24040;-82
2022/07/07 05:19:57;;;;;;;2.40;1.07;;;25.70;93.80;26.10;100310;;;;577976;244;24129;-81
2022/07/07 05:22:25;;;;;;;1.13;0.87;;;26.80;91.20;27.70;100310;;;;587963;242;24063;-82
2022/07/07 05:24:56;;;;;;;4.47;0.70;;;28.30;85.70;29.50;100313;;;;577635;244;23093;-81
2022/07/07 05:27:26;;;;;;;0.83;0.77;;;30.10;75.50;31.20;100313;;;;578773;244;23127;-81
2022/07/07 05:29:54;;;;;;;2.47;0.77;;;31.90;66.60;33.10;100317;;;;577672;244;23082;-82
2022/07/07 05:32:22;;;;;;;2.17;0.98;;;33.60;58.00;34.30;100324;;;;577420;244;24063;-83
2022/07/07 05:34:50;;;;;;;1.83;0.70;;;35.00;54.80;35.40;100316;;;;577590;244;23069;-83
2022/07/07 05:37:18;;;;;;;1.60;0.68;;;36.10;51.90;36.30;100324;;;;578724;244;23091;-82
2022/07/07 05:39:46;;;;;;;1.17;0.93;;;37.20;49.10;37.10;100321;;;;578873;243;23063;-81
2022/07/07 05:42:13;;;;;;;2.37;0.85;;;38.00;46.80;37.50;100315;;;;578700;243;23057;-82
2022/07/07 05:44:41;;;;;;;1.95;1.12;;;38.50;44.70;37.30;100321;;;;578316;244;23114;-82
2022/07/07 05:47:09;;;;;;;2.80;0.80;;;38.40;44.20;37.40;100324;;;;578458;244;23069;-81
2022/07/07 05:49:38;;;;;;;2.25;0.90;;;38.70;43.50;37.80;100334;;;;578051;244;23165;-81
2022/07/07 05:52:06;;;;;;;1.33;0.57;;;38.70;43.50;38.70;100324;;;;578230;244;23072;-81
2022/07/07 05:54:34;;;;;;;3.65;0.80;;;39.40;42.90;39.50;100326;;;;577232;244;23141;-82
2022/07/07 05:57:05;;;;;;;1.02;0.80;;;40.20;41.60;39.70;100335;;;;577865;244;23114;-83
2022/07/07 05:59:30;;;;;;;4.35;0.90;;;40.40;41.00;39.60;100322;;;;587977;244;23080;-83
2022/07/07 06:01:58;;;;;;;0.75;0.70;;;40.40;40.60;39.10;100332;;;;577770;244;23104;-83
2022/07/07 06:04:26;;;;;;;0.77;0.70;;;40.10;40.60;38.20;100336;;;;577940;244;23147;-82
2022/07/07 06:06:53;;;;;;;2.10;0.70;;;39.40;40.60;37.90;100339;;;;577863;244;23080;-80
2022/07/07 06:09:23;;;;;;;1.48;0.73;;;38.90;41.60;38.60;100333;;;;578044;244;23115;-82
2022/07/07 06:11:50;;;;;;;4.05;1.00;;;39.60;40.60;39.10;100331;;;;577796;244;23112;-82
2022/07/07 06:14:18;;;;;;;7.28;0.90;;;39.60;40.60;39.60;100323;;;;579096;244;23085;-81
2022/07/07 06:16:46;;;;;;;2.78;0.77;;;40.10;40.20;39.90;100331;;;;577636;244;23071;-82
2022/07/07 06:19:17;;;;;;;2.97;1.10;;;40.40;39.20;40.00;100326;;;;577535;244;23067;-81
2022/07/07 06:21:45;;;;;;;1.60;0.75;;;40.50;38.80;40.30;100326;;;;587950;244;23113;-80
2022/07/07 06:24:10;;;;;;;2.65;1.00;;;41.10;38.50;40.50;100335;;;;578496;244;23078;-81
2022/07/07 06:26:39;;;;;;;1.45;1.00;;;40.90;38.00;40.20;100331;;;;577537;244;23075;-80
2022/07/07 06:29:07;;;;;;;4.47;0.77;;;40.90;38.00;39.80;100325;;;;577510;244;23062;-81
2022/07/07 06:31:35;;;;;;;4.85;1.00;;;40.60;38.70;40.20;100317;;;;577513;244;23087;-81
2022/07/07 06:34:03;;;;;;;4.35;0.90;;;40.70;38.90;40.70;100316;;;;577600;244;23082;-81
2022/07/07 06:36:31;;;;;;;7.72;1.15;;;41.10;38.60;41.40;100321;;;;577674;244;23078;-81
2022/07/07 06:38:59;;;;;;;4.75;0.85;;;41.80;37.50;42.00;100313;;;;577909;244;23081;-81
2022/07/07 06:41:35;;;;;;;2.28;0.85;;;42.40;36.60;42.40;100308;;;;577716;244;23053;-80
2022/07/07 06:44:09;;;;;;;6.85;1.30;;;42.80;36.60;43.20;100313;;;;579310;244;23066;-81
2022/07/07 06:46:34;;;;;;;3.03;1.10;;;43.50;36.00;43.10;100309;;;;578580;244;23069;-81
2022/07/07 06:49:02;;;;;;;3.33;0.82;;;43.70;35.30;42.90;100313;;;;577482;244;24152;-81
2022/07/07 06:51:30;;;;;;;1.83;0.77;;;43.50;35.00;42.80;100315;;;;580027;243;23126;-79
2022/07/07 06:53:58;;;;;;;2.85;0.90;;;43.40;35.20;43.10;100309;;;;578707;243;24092;-81
2022/07/07 06:56:26;;;;;;;4.47;1.45;;;43.50;35.00;43.20;100312;;;;578489;244;23071;-79
2022/07/07 06:58:54;;;;;;;6.78;2.17;;;43.60;35.10;43.20;100308;;;;588681;242;23081;-80
2022/07/07 07:01:22;;;;;;;3.50;1.02;;;43.60;35.60;43.10;100312;;;;578479;244;23117;-81
2022/07/07 07:03:50;;;;;;;0.98;0.82;;;43.50;35.20;42.60;100305;;;;578196;244;23134;-80
2022/07/07 07:06:19;;;;;;;1.85;0.95;;;43.20;34.30;42.10;100311;;;;579266;244;23123;-81
2022/07/07 07:08:48;;;;;;;4.50;1.02;;;42.60;35.20;42.20;100305;;;;578023;244;23078;-81
2022/07/07 07:11:15;;;;;;;0.82;0.82;;;42.70;34.80;42.30;100313;;;;577759;244;23080;-81
2022/07/07 07:13:47;;;;;;;3.50;0.93;;;42.40;34.80;41.70;100298;;;;578036;244;23112;-81
2022/07/07 07:16:12;;;;;;;4.35;2.37;;;42.30;34.80;41.80;100308;;;;577843;244;23078;-81
2022/07/07 07:18:39;;;;;;;3.33;0.90;;;42.30;35.00;40.80;100312;;;;577884;244;23097;-79
2022/07/07 07:21:11;;;;;;;1.35;0.62;;;41.60;35.20;40.30;100303;;;;578321;244;23073;-80
2022/07/07 07:23:38;;;;;;;3.45;1.02;;;40.90;35.90;40.60;100308;;;;578210;244;23077;-80
2022/07/07 07:26:04;;;;;;;3.62;1.17;;;41.30;36.10;41.20;100305;;;;577830;244;23105;-80
2022/07/07 07:28:33;;;;;;;1.35;1.02;;;41.30;36.10;42.20;100304;;;;578987;244;23074;-80
2022/07/07 07:31:00;;;;;;;5.57;1.00;;;42.10;35.90;43.40;100300;;;;578012;244;24101;-80
2022/07/07 07:33:31;;;;;;;2.10;0.98;;;43.20;34.90;44.60;100286;;;;587964;242;23061;-82
2022/07/07 07:35:56;;;;;;;7.05;2.15;;;44.50;33.90;45.20;100302;;;;579441;241;23161;-81
2022/07/07 07:38:24;;;;;;;1.42;1.15;;;45.30;33.60;45.00;100292;;;;577957;244;23111;-81
2022/07/07 07:40:51;;;;;;;2.10;1.08;;;45.50;33.10;44.90;100292;;;;579346;244;23064;-80
2022/07/07 07:43:19;;;;;;;3.10;1.00;;;45.40;33.50;44.70;100292;;;;578007;244;23122;-81
2022/07/07 07:45:47;;;;;;;2.87;1.00;;;45.20;33.40;44.30;100293;;;;577943;244;23071;-81
2022/07/07 07:48:15;;;;;;;3.72;1.95;;;44.80;33.00;43.90;100294;;;;577984;244;23104;-82
2022/07/07 07:50:43;;;;;;;1.98;1.17;;;44.50;33.50;43.70;100304;;;;577907;244;23129;-81
2022/07/07 07:53:11;;;;;;;5.75;0.93;;;44.10;34.10;43.20;100296;;;;577901;244;23107;-81
2022/07/07 07:55:39;;;;;;;5.53;1.10;;;43.70;34.40;42.70;100300;;;;577733;244;23069;-82
2022/07/07 07:58:10;;;;;;;3.90;1.00;;;43.10;34.70;42.70;100292;;;;577584;244;24072;-81
2022/07/07 08:00:35;;;;;;;2.08;0.95;;;43.00;34.90;42.50;100304;;;;578537;244;23077;-80
2022/07/07 08:03:03;;;;;;;2.25;0.80;;;42.80;34.80;42.60;100293;;;;578657;243;23079;-80
2022/07/07 08:05:34;;;;;;;4.70;2.87;;;42.80;35.10;42.50;100289;;;;579943;243;23068;-80
2022/07/07 08:07:59;;;;;;;6.68;1.30;;;42.80;34.80;42.30;100305;;;;574339;244;46028;-82
2022/07/07 08:10:31;;;;;;;11.68;1.67;;;42.60;33.90;41.60;100309;;;;578256;244;23072;-82
2022/07/07 08:12:54;;;;;;;2.08;1.00;;;42.20;34.30;40.70;100303;;;;578017;244;23109;-81
2022/07/07 08:15:22;;;;;;;2.85;0.80;;;41.40;34.50;40.80;100308;;;;578113;244;23094;-81
2022/07/07 08:17:52;;;;;;;3.60;0.90;;;41.20;35.60;40.10;100312;;;;577976;244;23134;-80
2022/07/07 08:20:22;;;;;;;8.60;1.95;;;40.70;36.00;38.90;100311;;;;578020;244;23081;-81
2022/07/07 08:22:47;;;;;;;7.55;1.58;;;38.90;37.50;38.10;100307;;;;577994;244;23083;-81
2022/07/07 08:25:15;;;;;;;1.40;0.85;;;38.20;38.20;37.60;100296;;;;578179;244;23084;-81
2022/07/07 08:27:47;;;;;;;3.33;0.80;;;38.20;38.10;36.90;100307;;;;588195;242;23115;-80
2022/07/07 08:30:11;;;;;;;1.62;0.75;;;37.50;38.80;36.60;100318;;;;577708;244;23150;-82
2022/07/07 08:32:43;;;;;;;3.15;0.85;;;37.00;39.60;36.00;100299;;;;577858;244;23110;-81
2022/07/07 08:35:07;;;;;;;6.35;0.70;;;36.50;40.10;35.40;100316;;;;577552;244;23102;-80
2022/07/07 08:37:35;;;;;;;1.37;0.80;;;36.00;40.80;34.90;100309;;;;577883;244;23107;-81
2022/07/07 08:40:03;;;;;;;3.20;0.68;;;35.40;41.80;34.20;100308;;;;577489;244;23079;-81
2022/07/07 08:42:34;;;;;;;5.15;0.85;;;34.70;41.90;33.70;100314;;;;578916;244;23069;-81
2022/07/07 08:44:59;;;;;;;2.87;0.70;;;34.10;42.50;32.90;100312;;;;587642;244;23072;-81
2022/07/07 08:47:27;;;;;;;1.67;0.65;;;33.50;43.30;32.30;100298;;;;577520;244;23074;-82
2022/07/07 08:49:55;;;;;;;3.62;0.68;;;32.10;45.40;31.50;100302;;;;577636;244;23100;-81
2022/07/07 08:52:24;;;;;;;18.48;2.28;;;31.50;46.50;30.80;100299;;;;577523;244;23069;-81
2022/07/07 08:57:33;;;;;;;7.70;0.80;;;31.00;46.80;30.20;100294;;;;579463;248;24090;-82
2022/07/07 09:00:01;;;;;;;5.07;0.85;;;30.70;47.50;30.20;100296;;;;579666;248;23103;-82
2022/07/07 09:02:29;;;;;;;2.95;1.05;;;30.50;47.60;30.30;100300;;;;585727;243;23150;-82
2022/07/07 09:04:57;;;;;;;5.60;0.82;;;30.70;47.40;30.10;100288;;;;571166;248;23086;-80
2022/07/07 09:07:25;;;;;;;1.77;0.70;;;30.50;48.00;29.80;100296;;;;591032;243;23065;-79
2022/07/07 09:09:53;;;;;;;3.65;0.68;;;30.20;48.20;29.60;100300;;;;570924;248;23148;-79
2022/07/07 09:12:21;;;;;;;4.40;0.73;;;30.00;48.90;29.70;100297;;;;585682;243;23064;-82
2022/07/07 09:14:50;;;;;;;2.95;0.68;;;29.90;49.60;29.60;100297;;;;571995;248;23114;-81
2022/07/07 09:17:30;;;;;;;2.53;1.02;;;29.90;49.60;29.20;100289;;;;583151;243;23132;-82
2022/07/07 09:20:11;;;;;;;1.90;0.70;;;29.70;49.60;28.80;100294;;;;571653;248;24124;-80
2022/07/07 09:22:46;;;;;;;3.20;0.70;;;29.30;49.90;28.60;100288;;;;577549;243;35113;-82
2022/07/07 09:25:11;;;;;;;2.50;0.80;;;29.00;50.80;28.60;100290;;;;572475;248;24342;-82
2022/07/07 09:27:49;;;;;;;4.67;0.70;;;29.00;51.60;28.80;100290;;;;582552;243;23049;-80
2022/07/07 09:30:29;;;;;;;1.80;0.80;;;29.30;51.10;29.00;100290;;;;584891;243;23019;-82
2022/07/07 09:33:01;;;;;;;0.85;0.57;;;29.50;51.90;29.20;100286;;;;580016;247;24092;-81
2022/07/07 09:38:15;;;;;;;2.70;0.70;;;29.80;49.80;29.60;100288;;;;571150;248;23111;-80
2022/07/07 09:41:08;;;;;;;2.08;0.75;;;29.90;49.20;29.60;100282;;;;582577;243;23064;-80
2022/07/07 09:43:46;;;;;;;2.62;0.88;;;30.00;49.40;29.30;100288;;;;571724;248;23067;-81
2022/07/07 09:46:23;;;;;;;4.82;1.00;;;29.80;49.60;28.90;100294;;;;582314;243;23133;-81
2022/07/07 09:48:54;;;;;;;4.90;1.00;;;29.40;50.30;28.60;100283;;;;575441;247;34981;-81
2022/07/07 09:51:31;;;;;;;1.90;0.80;;;29.10;50.90;28.40;100282;;;;590867;243;24126;-79
2022/07/07 09:54:08;;;;;;;4.97;0.80;;;28.90;51.50;28.60;100274;;;;570989;248;24125;-78
2022/07/07 09:56:45;;;;;;;4.30;0.80;;;29.20;51.80;29.00;100280;;;;586061;241;23100;-80
2022/07/07 09:59:16;;;;;;;5.78;1.35;;;29.20;51.10;29.10;100280;;;;576537;246;24106;-79
2022/07/07 10:01:45;;;;;;;7.40;0.90;;;29.40;50.80;29.10;100288;;;;576236;246;23076;-80
2022/07/07 10:04:22;;;;;;;7.73;1.00;;;29.40;50.80;29.30;100288;;;;576596;246;23084;-83
2022/07/07 10:06:40;;;;;;;1.73;0.80;;;29.60;51.10;29.60;100288;;;;577365;246;24116;-80
2022/07/07 10:09:11;;;;;;;4.57;1.08;;;29.80;50.90;29.50;100296;;;;576571;246;23128;-83
2022/07/07 10:11:45;;;;;;;1.67;0.62;;;29.90;50.70;29.40;100294;;;;576741;246;23514;-81
2022/07/07 10:14:27;;;;;;;1.50;0.65;;;29.80;50.60;29.00;100284;;;;577004;246;23062;-82
2022/07/07 10:16:58;;;;;;;2.03;0.73;;;29.50;50.30;28.50;100291;;;;586651;241;24130;-82
2022/07/07 10:19:27;;;;;;;2.67;0.60;;;29.00;51.30;28.10;100296;;;;577076;246;24128;-83
2022/07/07 10:21:51;;;;;;;5.07;0.93;;;28.70;52.10;27.80;100284;;;;576322;246;23190;-79
2022/07/07 10:24:19;;;;;;;3.77;0.90;;;28.30;52.60;27.60;100293;;;;585293;244;23086;-80
2022/07/07 10:26:59;;;;;;;3.80;1.00;;;28.10;53.20;27.50;100290;;;;577608;245;23093;-80
2022/07/07 10:29:39;;;;;;;2.37;0.70;;;27.90;53.60;27.30;100289;;;;586765;244;23068;-82
2022/07/07 10:32:13;;;;;;;1.90;0.80;;;27.70;53.80;27.40;100284;;;;577352;246;23131;-81
2022/07/07 10:34:40;;;;;;;2.33;1.00;;;27.70;54.30;27.80;100288;;;;585636;244;23078;-82
2022/07/07 10:37:05;;;;;;;8.83;1.07;;;28.10;54.60;28.40;100291;;;;577557;245;23077;-83
2022/07/07 10:39:36;;;;;;;7.63;1.53;;;28.70;53.70;29.00;100278;;;;580404;238;23064;-80
2022/07/07 10:42:16;;;;;;;2.73;0.90;;;29.30;52.70;29.40;100286;;;;576569;246;24065;-81
2022/07/07 10:44:46;;;;;;;3.63;0.77;;;29.80;51.90;29.80;100278;;;;576879;246;23095;-80
2022/07/07 10:47:17;;;;;;;1.00;0.55;;;30.20;51.10;29.80;100280;;;;576395;246;23077;-80
2022/07/07 10:49:51;;;;;;;6.27;2.90;;;30.30;51.20;29.80;100284;;;;576255;246;23060;-80
2022/07/07 10:52:19;;;;;;;10.52;5.43;;;30.30;51.40;29.80;100287;;;;576037;246;23080;-79
2022/07/07 10:54:53;;;;;;;1.07;0.63;;;30.20;51.40;29.40;100289;;;;576460;241;23129;-80
2022/07/07 10:57:21;;;;;;;5.93;1.07;;;30.00;51.10;29.00;100290;;;;571236;245;23066;-80
2022/07/07 11:00:04;;;;;;;1.25;0.77;;;29.60;52.20;28.50;100292;;;;576955;246;23108;-80
2022/07/07 11:02:50;;;;;;;3.47;1.00;;;29.00;52.90;28.00;100288;;;;576491;246;23116;-79
2022/07/07 11:05:18;;;;;;;5.10;0.80;;;28.50;53.80;27.70;100293;;;;576460;246;23101;-78
2022/07/07 11:08:07;;;;;;;4.43;1.00;;;28.10;54.90;27.30;100299;;;;576524;246;23114;-78
2022/07/07 11:10:46;;;;;;;1.80;0.80;;;27.80;55.30;27.00;100294;;;;576347;246;23090;-82
2022/07/07 11:13:23;;;;;;;3.70;0.83;;;27.40;55.90;26.80;100290;;;;586207;245;23090;-80
2022/07/07 11:15:53;;;;;;;4.07;0.80;;;27.20;56.70;26.60;100289;;;;576300;246;24172;-80
2022/07/07 11:18:21;;;;;;;3.30;0.83;;;27.00;57.00;26.30;100284;;;;575351;246;23120;-80
2022/07/07 11:20:52;;;;;;;9.97;1.13;;;26.80;57.20;26.10;100299;;;;576423;246;24056;-80
2022/07/07 11:23:24;;;;;;;1.17;0.63;;;26.60;58.10;25.90;100297;;;;576224;246;23087;-79